CheckWX is a tool to help pilots better visualize weather data.  It is not intended as a substitute for an official pre-flight weather briefing.

22:08:19 UTC

LFCR METAR
Rodez-Marcillac Airport
Rodez/Marcillac, France
Current

38 mins ago

LFCR 162130Z AUTO 14007KT 9999 OVC043 11/09 Q1016 NOSIG
Observed
Oct-16 @ 21:30 UTC
Wind
  • 140° at 7 KTS
Visibility
10,000+ meters
Flight Rules
VFR
Cloud Levels
  • Overcast at 4,300' AGL
Temperature
11°C / 52°F
Dewpoint
C / 48°F
Humidity
88%
Altimeter
30" Hg
Pressure
1015.92 hPa
Previous

1 hour ago

LFCR 162100Z AUTO 15007KT 9999 BKN045 11/09 Q1016 NOSIG
Observed
Oct-16 @ 21:00 UTC
Wind
  • 150° at 7 KTS
Visibility
10,000+ meters
Flight Rules
VFR
Cloud Levels
  • Broken at 4,500' AGL
Temperature
11°C / 52°F
Dewpoint
C / 48°F
Humidity
88%
Altimeter
30" Hg
Pressure
1015.92 hPa
Previous

2 hours ago

LFCR 162030Z AUTO 14007KT CAVOK 11/09 Q1016 NOSIG
Observed
Oct-16 @ 20:30 UTC
Wind
  • 140° at 7 KTS
Visibility
10,000+ meters
Flight Rules
VFR
Cloud Levels
  • Clear skies
Temperature
11°C / 52°F
Dewpoint
C / 48°F
Humidity
88%
Altimeter
30" Hg
Pressure
1015.92 hPa